Time;durP1;ratioP1;P1;durP2;ratioP2;P2;SDS_P1;SDS_P2;PMS_P1;PMS_P2;Temp;Humidity;BMP_temperature;BMP_pressure;BME280_temperature;BME280_humidity;BME280_pressure;Samples;Min_cycle;Max_cycle;Signal;HPM_P1;HPM_P2
2022/03/21 00:00:53;;;;;;;42.42;17.63;;;;;;;;;;5053082;28;20072;-54
2022/03/21 00:03:21;;;;;;;37.83;16.37;;;;;;;;;;5053093;28;20029;-54
2022/03/21 00:05:47;;;;;;;44.92;17.35;;;;;;;;;;5052980;28;20553;-51
2022/03/21 00:08:15;;;;;;;42.72;16.83;;;;;;;;;;5052926;28;20021;-54
2022/03/21 00:10:41;;;;;;;44.03;17.77;;;;;;;;;;5053123;28;20021;-55
2022/03/21 00:13:08;;;;;;;42.33;16.80;;;;;;;;;;5053160;28;20033;-51
2022/03/21 00:15:35;;;;;;;32.33;14.27;;;;;;;;;;5052714;28;20515;-51
2022/03/21 00:18:03;;;;;;;32.60;14.40;;;;;;;;;;5052751;28;20025;-52
2022/03/21 00:20:30;;;;;;;33.90;14.48;;;;;;;;;;5052671;28;20028;-52
2022/03/21 00:22:56;;;;;;;36.75;14.60;;;;;;;;;;5052649;28;20025;-51
2022/03/21 00:25:22;;;;;;;32.13;14.32;;;;;;;;;;5052741;28;20074;-50
2022/03/21 00:27:48;;;;;;;36.17;14.02;;;;;;;;;;5052580;28;20048;-51
2022/03/21 00:30:14;;;;;;;34.13;14.35;;;;;;;;;;5052496;28;20102;-50
2022/03/21 00:32:42;;;;;;;41.60;13.27;;;;;;;;;;5052844;28;20067;-55
2022/03/21 00:35:10;;;;;;;37.17;14.57;;;;;;;;;;5052532;28;20518;-51
2022/03/21 00:37:37;;;;;;;33.78;14.23;;;;;;;;;;5052486;28;20029;-51
2022/03/21 00:40:05;;;;;;;45.22;15.77;;;;;;;;;;5052473;28;20119;-53
2022/03/21 00:42:34;;;;;;;30.63;14.07;;;;;;;;;;5052193;28;20051;-53
2022/03/21 00:45:00;;;;;;;35.85;14.13;;;;;;;;;;5052418;28;20048;-55
2022/03/21 00:47:26;;;;;;;29.58;13.63;;;;;;;;;;5052701;28;20112;-55
2022/03/21 00:49:52;;;;;;;27.70;13.40;;;;;;;;;;5052393;28;20108;-58
2022/03/21 00:52:19;;;;;;;32.67;12.27;;;;;;;;;;5052666;28;20036;-51
2022/03/21 00:54:45;;;;;;;34.38;11.70;;;;;;;;;;5052461;28;20071;-51
2022/03/21 00:57:11;;;;;;;32.50;11.20;;;;;;;;;;5052637;28;20052;-54
2022/03/21 00:59:36;;;;;;;31.10;12.25;;;;;;;;;;5052314;28;20068;-50
2022/03/21 01:02:02;;;;;;;28.42;11.32;;;;;;;;;;5052289;28;20040;-51
2022/03/21 01:04:27;;;;;;;27.23;10.93;;;;;;;;;;5052285;28;20103;-50
2022/03/21 01:06:53;;;;;;;30.00;11.75;;;;;;;;;;5052527;28;20111;-52
2022/03/21 01:09:19;;;;;;;32.97;12.25;;;;;;;;;;5052200;28;20025;-51
2022/03/21 01:11:45;;;;;;;21.70;9.90;;;;;;;;;;5052283;28;20029;-51
2022/03/21 01:14:11;;;;;;;24.50;11.20;;;;;;;;;;5052060;28;20036;-51
2022/03/21 01:16:37;;;;;;;23.83;10.73;;;;;;;;;;5052369;28;20032;-51
2022/03/21 01:19:03;;;;;;;24.80;11.32;;;;;;;;;;5052123;28;20040;-55
2022/03/21 01:21:30;;;;;;;26.52;10.60;;;;;;;;;;5052079;28;20029;-53
2022/03/21 01:23:55;;;;;;;24.83;10.48;;;;;;;;;;5052122;28;20570;-51
2022/03/21 01:26:21;;;;;;;29.63;11.68;;;;;;;;;;5052114;28;20028;-54
2022/03/21 01:28:46;;;;;;;32.47;11.52;;;;;;;;;;5052271;28;20048;-53
2022/03/21 01:31:12;;;;;;;26.65;11.35;;;;;;;;;;5052317;28;20035;-52
2022/03/21 01:33:38;;;;;;;25.38;12.10;;;;;;;;;;5052039;28;20491;-53
2022/03/21 01:36:05;;;;;;;28.02;10.38;;;;;;;;;;5051885;28;20047;-52
2022/03/21 01:38:30;;;;;;;26.98;11.00;;;;;;;;;;5052224;28;20227;-49
2022/03/21 01:40:56;;;;;;;22.35;10.73;;;;;;;;;;5053833;28;20083;-50
2022/03/21 01:43:21;;;;;;;25.40;10.95;;;;;;;;;;5055724;28;20037;-51
2022/03/21 01:45:47;;;;;;;33.90;10.98;;;;;;;;;;5055973;28;20064;-53
2022/03/21 01:48:12;;;;;;;26.65;12.20;;;;;;;;;;5055582;28;20058;-51
2022/03/21 01:50:38;;;;;;;25.30;11.88;;;;;;;;;;5055820;28;20033;-51
2022/03/21 01:55:48;;;;;;;28.15;11.60;;;;;;;;;;5055489;28;20083;-50
2022/03/21 01:58:15;;;;;;;25.55;13.00;;;;;;;;;;5055684;28;20061;-51
2022/03/21 02:00:45;;;;;;;31.08;13.35;;;;;;;;;;5055364;28;20029;-52
2022/03/21 02:03:11;;;;;;;18.98;7.32;;;;;;;;;;5055437;28;20087;-50
2022/03/21 02:05:38;;;;;;;27.58;10.68;;;;;;;;;;5055309;28;20061;-51
2022/03/21 02:08:04;;;;;;;27.08;11.40;;;;;;;;;;5055234;28;20029;-53
2022/03/21 02:10:30;;;;;;;25.98;10.18;;;;;;;;;;5055215;28;20075;-54
2022/03/21 02:12:56;;;;;;;26.05;11.23;;;;;;;;;;5055326;28;20112;-55
2022/03/21 02:15:22;;;;;;;28.17;10.82;;;;;;;;;;5055038;28;20036;-53
2022/03/21 02:17:52;;;;;;;25.88;10.52;;;;;;;;;;5055340;28;20025;-60
2022/03/21 02:20:18;;;;;;;22.15;10.30;;;;;;;;;;5055022;28;20059;-54
2022/03/21 02:23:09;;;;;;;23.77;10.98;;;;;;;;;;5054915;28;20025;-53
2022/03/21 02:25:36;;;;;;;23.60;10.77;;;;;;;;;;5055251;28;20029;-54
2022/03/21 02:28:06;;;;;;;25.50;10.85;;;;;;;;;;5054880;28;20103;-55
2022/03/21 02:30:36;;;;;;;32.45;11.52;;;;;;;;;;5054954;28;20107;-54
2022/03/21 02:33:02;;;;;;;20.55;10.32;;;;;;;;;;5055182;28;20040;-51
2022/03/21 02:35:29;;;;;;;20.50;9.13;;;;;;;;;;5053401;28;20061;-51
2022/03/21 02:37:56;;;;;;;7.18;4.95;;;;;;;;;;5055051;28;20051;-50
2022/03/21 02:40:22;;;;;;;20.17;8.55;;;;;;;;;;5054742;28;20102;-53
2022/03/21 02:42:49;;;;;;;21.05;9.93;;;;;;;;;;5054652;28;20085;-51
2022/03/21 02:45:15;;;;;;;21.42;8.48;;;;;;;;;;5054619;28;20618;-59
2022/03/21 02:47:40;;;;;;;8.55;5.20;;;;;;;;;;5054511;28;20033;-57
2022/03/21 02:50:11;;;;;;;21.27;6.30;;;;;;;;;;5054541;28;20033;-60
2022/03/21 02:52:39;;;;;;;2.08;1.75;;;;;;;;;;5053487;28;20032;-52
2022/03/21 02:55:05;;;;;;;2.28;2.10;;;;;;;;;;5054600;28;20086;-59
2022/03/21 02:57:32;;;;;;;23.45;9.60;;;;;;;;;;5054342;28;20098;-61
2022/03/21 02:59:59;;;;;;;28.52;9.73;;;;;;;;;;5054298;28;20025;-62
2022/03/21 03:02:25;;;;;;;22.10;10.60;;;;;;;;;;5054507;28;20052;-61
2022/03/21 03:04:50;;;;;;;23.38;10.63;;;;;;;;;;5054530;28;20059;-62
2022/03/21 03:07:16;;;;;;;23.27;10.48;;;;;;;;;;5052947;28;20021;-62
2022/03/21 03:09:41;;;;;;;24.85;11.00;;;;;;;;;;5054238;28;20676;-61
2022/03/21 03:12:08;;;;;;;28.92;10.90;;;;;;;;;;5054371;28;20407;-61
2022/03/21 03:14:35;;;;;;;24.48;10.82;;;;;;;;;;5053944;28;20099;-61
2022/03/21 03:17:01;;;;;;;31.55;12.75;;;;;;;;;;5054281;28;20600;-60
2022/03/21 03:19:27;;;;;;;23.70;12.30;;;;;;;;;;5053843;28;20052;-58
2022/03/21 03:21:53;;;;;;;29.52;12.25;;;;;;;;;;5053738;28;20028;-61
2022/03/21 03:24:21;;;;;;;26.92;11.55;;;;;;;;;;5053871;28;20036;-59
2022/03/21 03:26:48;;;;;;;29.02;12.15;;;;;;;;;;5053713;28;20059;-60
2022/03/21 03:29:14;;;;;;;21.50;11.57;;;;;;;;;;5053686;28;20447;-61
2022/03/21 03:31:40;;;;;;;27.23;12.00;;;;;;;;;;5053862;28;20021;-60
2022/03/21 03:34:06;;;;;;;27.90;11.70;;;;;;;;;;5053436;28;20372;-60
2022/03/21 03:36:32;;;;;;;34.15;12.57;;;;;;;;;;5053868;28;20399;-59
2022/03/21 03:38:58;;;;;;;32.05;11.38;;;;;;;;;;5053835;28;20017;-58
2022/03/21 03:41:24;;;;;;;26.25;11.43;;;;;;;;;;5053151;28;20052;-54
2022/03/21 03:43:50;;;;;;;32.63;12.35;;;;;;;;;;5053723;28;20392;-53
2022/03/21 03:46:17;;;;;;;29.58;11.88;;;;;;;;;;5053298;28;20075;-53
2022/03/21 03:48:43;;;;;;;30.70;12.85;;;;;;;;;;5053660;28;20029;-54
2022/03/21 03:51:12;;;;;;;23.80;11.77;;;;;;;;;;5053316;28;20071;-55
2022/03/21 03:53:39;;;;;;;28.25;11.77;;;;;;;;;;5053539;28;20040;-52
2022/03/21 03:56:06;;;;;;;27.63;13.00;;;;;;;;;;5053149;28;20108;-54
2022/03/21 03:58:33;;;;;;;26.05;12.05;;;;;;;;;;5053220;28;20025;-55
2022/03/21 04:00:58;;;;;;;33.15;12.40;;;;;;;;;;5068562;28;20065;-52
2022/03/21 04:06:08;;;;;;;36.45;13.45;;;;;;;;;;5053121;28;20147;-52
2022/03/21 04:08:34;;;;;;;28.02;12.82;;;;;;;;;;5053032;28;20025;-64
2022/03/21 04:10:59;;;;;;;30.88;12.60;;;;;;;;;;5052906;28;20025;-54
2022/03/21 04:13:25;;;;;;;26.92;12.05;;;;;;;;;;5053233;28;20039;-53
2022/03/21 04:15:50;;;;;;;31.20;13.23;;;;;;;;;;5052828;28;20499;-55
2022/03/21 04:18:16;;;;;;;29.08;12.98;;;;;;;;;;5052807;28;20036;-53
2022/03/21 04:20:42;;;;;;;26.88;11.98;;;;;;;;;;5053072;28;20025;-54
2022/03/21 04:23:09;;;;;;;31.27;12.25;;;;;;;;;;5053074;28;20033;-56
2022/03/21 04:25:35;;;;;;;48.42;13.70;;;;;;;;;;5052684;28;20029;-54
2022/03/21 04:28:07;;;;;;;28.17;11.98;;;;;;;;;;5052777;28;20017;-58
2022/03/21 04:30:32;;;;;;;28.35;13.23;;;;;;;;;;5068114;28;20020;-61
2022/03/21 04:32:58;;;;;;;30.30;13.93;;;;;;;;;;5052691;28;20481;-61
2022/03/21 04:35:23;;;;;;;32.83;14.20;;;;;;;;;;5052540;28;20033;-54
2022/03/21 04:37:49;;;;;;;33.60;14.65;;;;;;;;;;5052727;28;20033;-53
2022/03/21 04:40:14;;;;;;;30.65;12.95;;;;;;;;;;5052831;28;20522;-56
2022/03/21 04:42:40;;;;;;;23.05;11.63;;;;;;;;;;5052178;28;20541;-52
2022/03/21 04:45:07;;;;;;;32.90;15.63;;;;;;;;;;5052418;28;20025;-52
2022/03/21 04:47:33;;;;;;;41.47;14.80;;;;;;;;;;5052379;28;20025;-59
2022/03/21 04:49:59;;;;;;;43.10;17.45;;;;;;;;;;5051019;28;20036;-51
2022/03/21 04:52:25;;;;;;;35.85;15.40;;;;;;;;;;5052257;28;20472;-54
2022/03/21 04:54:50;;;;;;;34.92;13.73;;;;;;;;;;5050615;28;20043;-54
2022/03/21 04:57:22;;;;;;;38.08;13.68;;;;;;;;;;5050533;28;20031;-66
2022/03/21 04:59:49;;;;;;;46.53;17.80;;;;;;;;;;5051838;28;20488;-60
2022/03/21 05:02:15;;;;;;;33.60;14.50;;;;;;;;;;5051781;28;20033;-58
2022/03/21 05:04:40;;;;;;;32.00;12.57;;;;;;;;;;5052452;28;20095;-57
2022/03/21 05:07:06;;;;;;;26.17;12.82;;;;;;;;;;5052032;28;20049;-57
2022/03/21 05:09:32;;;;;;;27.33;13.85;;;;;;;;;;5050205;28;20464;-60
2022/03/21 05:11:57;;;;;;;26.27;11.68;;;;;;;;;;5050218;28;20029;-61
2022/03/21 05:14:23;;;;;;;31.13;12.98;;;;;;;;;;5050075;28;20112;-55
2022/03/21 05:16:49;;;;;;;30.48;13.88;;;;;;;;;;5053936;28;20028;-53
2022/03/21 05:19:15;;;;;;;30.98;14.32;;;;;;;;;;5054542;28;20025;-58
2022/03/21 05:21:41;;;;;;;32.38;12.98;;;;;;;;;;5054424;28;20032;-55
2022/03/21 05:32:20;;;;;;;40.83;16.42;;;;;;;;;;5055960;28;20106;-54
2022/03/21 05:37:29;;;;;;;39.35;18.50;;;;;;;;;;5055974;28;20052;-55
2022/03/21 05:42:39;;;;;;;37.60;17.73;;;;;;;;;;5055657;28;20067;-53
2022/03/21 05:45:05;;;;;;;33.15;17.17;;;;;;;;;;5055476;28;20472;-55
2022/03/21 05:48:50;;;;;;;59.38;18.83;;;;;;;;;;5055558;28;20017;-53
2022/03/21 05:50:16;;;;;;;36.72;16.52;;;;;;;;;;5055495;28;20033;-53
2022/03/21 05:52:41;;;;;;;30.40;14.68;;;;;;;;;;5055451;28;20032;-55
2022/03/21 05:55:07;;;;;;;35.38;18.08;;;;;;;;;;5055338;28;20024;-50
2022/03/21 05:57:33;;;;;;;29.92;15.18;;;;;;;;;;5055278;28;20040;-53
2022/03/21 06:02:42;;;;;;;28.10;15.20;;;;;;;;;;5055647;28;20116;-49
2022/03/21 06:05:10;;;;;;;25.17;13.48;;;;;;;;;;5055237;28;20029;-50
2022/03/21 06:07:35;;;;;;;24.75;14.27;;;;;;;;;;5055190;28;20040;-56
2022/03/21 06:10:01;;;;;;;27.63;14.82;;;;;;;;;;5055175;28;20021;-54
2022/03/21 06:12:27;;;;;;;42.80;16.70;;;;;;;;;;5055154;28;20025;-53
2022/03/21 06:14:52;;;;;;;40.03;16.13;;;;;;;;;;5055290;28;20025;-51
2022/03/21 06:17:18;;;;;;;25.17;14.90;;;;;;;;;;5055197;28;20113;-51
2022/03/21 06:19:43;;;;;;;28.42;15.18;;;;;;;;;;5055003;28;20379;-57
2022/03/21 06:22:08;;;;;;;23.70;14.45;;;;;;;;;;5055165;28;20555;-52
2022/03/21 06:24:34;;;;;;;22.70;13.68;;;;;;;;;;5055083;28;20029;-56
2022/03/21 06:27:00;;;;;;;24.33;14.27;;;;;;;;;;5054750;28;20028;-57
2022/03/21 06:29:25;;;;;;;30.20;13.98;;;;;;;;;;5054715;28;20017;-62
2022/03/21 06:31:50;;;;;;;23.85;14.68;;;;;;;;;;5054963;28;20028;-52
2022/03/21 06:34:16;;;;;;;13.55;6.45;;;;;;;;;;5054492;28;20083;-57
2022/03/21 06:36:41;;;;;;;10.15;5.40;;;;;;;;;;5054601;28;20055;-57
2022/03/21 06:39:07;;;;;;;16.15;7.25;;;;;;;;;;5054783;28;20032;-57
2022/03/21 06:41:33;;;;;;;13.13;7.50;;;;;;;;;;5054559;28;20091;-52
2022/03/21 06:43:58;;;;;;;9.65;5.68;;;;;;;;;;5054825;28;20036;-50
2022/03/21 06:46:24;;;;;;;8.48;4.40;;;;;;;;;;5054709;28;20032;-49
2022/03/21 06:48:49;;;;;;;12.10;6.00;;;;;;;;;;5054601;28;20028;-52
2022/03/21 06:51:16;;;;;;;10.68;5.82;;;;;;;;;;5054571;28;20147;-50
2022/03/21 06:53:42;;;;;;;10.85;5.82;;;;;;;;;;5054330;28;20021;-50
2022/03/21 06:56:07;;;;;;;7.68;6.07;;;;;;;;;;5054211;28;20040;-50
2022/03/21 06:58:33;;;;;;;9.68;5.93;;;;;;;;;;5054186;28;20029;-50
2022/03/21 07:00:58;;;;;;;18.75;8.15;;;;;;;;;;5054498;28;20029;-60
2022/03/21 07:03:24;;;;;;;14.80;8.00;;;;;;;;;;5054151;28;20032;-52
2022/03/21 07:05:50;;;;;;;18.05;10.77;;;;;;;;;;5054129;28;20032;-62
2022/03/21 07:08:17;;;;;;;15.32;9.13;;;;;;;;;;5054373;28;20070;-52
2022/03/21 07:10:44;;;;;;;23.40;13.45;;;;;;;;;;5054023;28;20017;-53
2022/03/21 07:13:10;;;;;;;18.42;9.85;;;;;;;;;;5053827;28;20465;-64
2022/03/21 07:15:39;;;;;;;26.85;12.20;;;;;;;;;;5054023;28;20028;-59
2022/03/21 07:18:06;;;;;;;24.33;12.23;;;;;;;;;;5053761;28;20053;-61
2022/03/21 07:20:31;;;;;;;28.55;14.27;;;;;;;;;;5054055;28;20029;-58
2022/03/21 07:22:59;;;;;;;30.98;14.32;;;;;;;;;;5053923;28;20468;-54
2022/03/21 07:25:25;;;;;;;32.83;14.80;;;;;;;;;;5053665;28;20070;-62
2022/03/21 07:27:51;;;;;;;23.17;12.60;;;;;;;;;;5053904;28;20033;-51
2022/03/21 07:30:18;;;;;;;27.00;13.93;;;;;;;;;;5053789;28;20029;-49
2022/03/21 07:32:44;;;;;;;20.50;12.88;;;;;;;;;;5053539;28;20056;-62
2022/03/21 07:35:11;;;;;;;10.75;5.95;;;;;;;;;;5053339;28;20494;-64
2022/03/21 07:37:43;;;;;;;14.98;8.05;;;;;;;;;;5053287;28;20409;-64
2022/03/21 07:40:11;;;;;;;14.48;7.80;;;;;;;;;;5052358;28;20025;-63
2022/03/21 07:42:38;;;;;;;16.13;8.30;;;;;;;;;;5049661;28;20135;-53
2022/03/21 07:47:49;;;;;;;17.25;8.05;;;;;;;;;;5053215;28;20118;-49
2022/03/21 07:50:15;;;;;;;16.33;6.80;;;;;;;;;;5052938;28;20483;-61
2022/03/21 07:52:40;;;;;;;19.92;11.32;;;;;;;;;;5053133;28;20040;-61
2022/03/21 07:55:06;;;;;;;12.80;7.45;;;;;;;;;;5052790;28;20109;-53
2022/03/21 07:57:31;;;;;;;12.43;7.30;;;;;;;;;;5052102;28;20044;-53
2022/03/21 07:59:57;;;;;;;9.93;6.55;;;;;;;;;;5052306;28;20025;-61
2022/03/21 08:02:25;;;;;;;17.65;11.32;;;;;;;;;;5052982;28;20078;-56
2022/03/21 08:04:52;;;;;;;13.20;6.82;;;;;;;;;;5052997;28;20021;-60
2022/03/21 08:07:17;;;;;;;124.65;14.40;;;;;;;;;;5052741;28;20112;-52
2022/03/21 08:09:43;;;;;;;18.73;9.00;;;;;;;;;;5050481;28;20104;-52
2022/03/21 08:12:10;;;;;;;11.63;7.88;;;;;;;;;;5050731;28;20067;-63
2022/03/21 08:14:38;;;;;;;7.35;5.68;;;;;;;;;;5052472;28;20057;-54
2022/03/21 08:17:04;;;;;;;7.78;4.65;;;;;;;;;;5052875;28;20392;-50
2022/03/21 08:19:30;;;;;;;17.27;9.20;;;;;;;;;;5051227;28;20031;-54
2022/03/21 08:21:55;;;;;;;11.60;6.97;;;;;;;;;;5051298;28;20112;-58
2022/03/21 08:24:24;;;;;;;14.05;7.65;;;;;;;;;;5050324;28;20485;-60
2022/03/21 08:26:50;;;;;;;13.05;7.70;;;;;;;;;;5051186;28;20641;-62
2022/03/21 08:29:16;;;;;;;13.02;5.80;;;;;;;;;;5050931;28;20029;-51
2022/03/21 08:31:42;;;;;;;7.80;5.88;;;;;;;;;;5050108;28;20032;-57
2022/03/21 08:34:09;;;;;;;18.25;10.20;;;;;;;;;;5050621;28;20025;-49
2022/03/21 08:36:35;;;;;;;12.63;5.97;;;;;;;;;;5043902;28;20032;-53
2022/03/21 08:39:01;;;;;;;17.65;8.63;;;;;;;;;;5040089;28;20032;-58
2022/03/21 08:41:27;;;;;;;13.65;7.65;;;;;;;;;;5047577;28;20091;-55
2022/03/21 08:43:53;;;;;;;17.00;7.72;;;;;;;;;;5050618;28;20029;-54
2022/03/21 08:46:21;;;;;;;12.68;5.72;;;;;;;;;;5050582;28;20036;-58
2022/03/21 08:51:32;;;;;;;12.07;8.00;;;;;;;;;;5050883;28;20044;-60
2022/03/21 08:53:57;;;;;;;8.68;5.57;;;;;;;;;;5050743;28;20032;-60
2022/03/21 08:56:23;;;;;;;9.20;5.90;;;;;;;;;;5050686;28;20033;-62
2022/03/21 08:58:49;;;;;;;9.15;5.25;;;;;;;;;;5050461;28;20389;-62
2022/03/21 09:01:15;;;;;;;29.95;7.05;;;;;;;;;;5050485;28;20033;-63
2022/03/21 09:03:40;;;;;;;15.30;6.57;;;;;;;;;;5050356;28;20031;-56
2022/03/21 09:06:06;;;;;;;13.82;9.02;;;;;;;;;;5050163;28;20460;-57
2022/03/21 09:08:31;;;;;;;9.30;6.38;;;;;;;;;;5049078;28;20116;-60
2022/03/21 09:10:57;;;;;;;16.55;8.55;;;;;;;;;;5050511;28;20032;-61
2022/03/21 09:13:23;;;;;;;9.70;5.43;;;;;;;;;;5050785;28;20492;-60
2022/03/21 09:15:49;;;;;;;11.45;6.57;;;;;;;;;;5050080;28;20114;-51
2022/03/21 09:18:14;;;;;;;11.50;7.93;;;;;;;;;;5050807;28;20108;-53
2022/03/21 09:20:40;;;;;;;12.05;6.95;;;;;;;;;;5050459;28;20475;-55
2022/03/21 09:23:05;;;;;;;10.23;6.30;;;;;;;;;;5050372;28;20033;-59
2022/03/21 09:25:31;;;;;;;11.32;7.38;;;;;;;;;;5050534;28;20025;-61
2022/03/21 09:27:56;;;;;;;14.05;7.50;;;;;;;;;;5049545;28;20898;-55
2022/03/21 09:30:23;;;;;;;12.63;6.95;;;;;;;;;;5038599;28;20024;-53
2022/03/21 09:32:49;;;;;;;11.68;8.40;;;;;;;;;;5032260;28;20030;-60
2022/03/21 09:35:14;;;;;;;18.65;8.68;;;;;;;;;;5030535;28;20029;-61
2022/03/21 09:37:40;;;;;;;10.30;6.72;;;;;;;;;;5030329;28;20113;-60
2022/03/21 09:40:06;;;;;;;10.82;6.40;;;;;;;;;;5029710;28;20029;-60
2022/03/21 09:42:33;;;;;;;14.32;7.88;;;;;;;;;;5030088;28;20046;-53
2022/03/21 09:44:59;;;;;;;12.77;6.18;;;;;;;;;;5030389;28;20080;-53
2022/03/21 09:50:12;;;;;;;12.75;7.18;;;;;;;;;;5029256;28;20516;-60
2022/03/21 09:52:39;;;;;;;8.13;4.63;;;;;;;;;;5041572;28;20630;-60
2022/03/21 09:55:07;;;;;;;17.70;8.30;;;;;;;;;;5048691;28;20499;-58
2022/03/21 09:57:33;;;;;;;14.27;8.10;;;;;;;;;;5050123;28;20104;-53
2022/03/21 09:59:59;;;;;;;12.70;9.13;;;;;;;;;;5049982;28;20028;-60
2022/03/21 10:02:26;;;;;;;13.38;7.95;;;;;;;;;;5052542;28;20025;-59
2022/03/21 10:04:52;;;;;;;12.60;6.00;;;;;;;;;;5053103;28;20029;-57
2022/03/21 10:07:27;;;;;;;16.30;9.60;;;;;;;;;;5053359;28;20055;-52
2022/03/21 10:10:16;;;;;;;15.48;8.77;;;;;;;;;;5053777;28;20388;-59
2022/03/21 10:12:42;;;;;;;17.98;12.63;;;;;;;;;;5053640;28;20383;-60
2022/03/21 10:15:10;;;;;;;19.92;12.35;;;;;;;;;;5052090;28;20037;-55
2022/03/21 10:17:36;;;;;;;11.73;6.10;;;;;;;;;;5053679;28;20060;-62
2022/03/21 10:20:03;;;;;;;14.60;9.88;;;;;;;;;;5051930;28;20095;-61
2022/03/21 10:22:32;;;;;;;10.93;6.00;;;;;;;;;;5053281;28;20021;-58
2022/03/21 10:25:03;;;;;;;14.18;8.32;;;;;;;;;;5052250;28;20021;-60
2022/03/21 10:27:33;;;;;;;12.95;6.45;;;;;;;;;;5053033;28;20025;-56
2022/03/21 10:30:01;;;;;;;;;;;;;;;;;;5053835;28;20037;-60
2022/03/21 10:32:37;;;;;;;33.17;7.30;;;;;;;;;;5053069;28;20360;-60
2022/03/21 10:35:05;;;;;;;10.48;7.32;;;;;;;;;;5052664;28;20024;-60
2022/03/21 10:37:45;;;;;;;13.57;8.15;;;;;;;;;;5040544;28;20025;-59
2022/03/21 10:40:21;;;;;;;;;;;;;;;;;;5033573;28;20116;-59
2022/03/21 10:43:14;;;;;;;21.23;11.75;;;;;;;;;;5032991;28;20416;-55
2022/03/21 10:45:43;;;;;;;10.10;5.90;;;;;;;;;;5031374;28;20033;-54
2022/03/21 10:48:14;;;;;;;15.25;9.45;;;;;;;;;;5033035;28;20092;-59
2022/03/21 10:50:42;;;;;;;12.77;8.38;;;;;;;;;;5033066;28;20036;-60
2022/03/21 10:53:24;;;;;;;12.57;8.27;;;;;;;;;;5032628;28;20025;-60
2022/03/21 10:56:07;;;;;;;10.35;7.40;;;;;;;;;;5032991;28;20037;-56
2022/03/21 10:58:41;;;;;;;25.70;12.57;;;;;;;;;;5035444;28;20025;-56
2022/03/21 11:01:18;;;;;;;11.55;6.55;;;;;;;;;;5032684;28;20022;-52
2022/03/21 11:03:45;;;;;;;17.83;10.23;;;;;;;;;;5032470;28;20556;-58
2022/03/21 11:06:12;;;;;;;17.77;8.75;;;;;;;;;;5032627;28;20116;-60
2022/03/21 11:08:39;;;;;;;13.02;9.02;;;;;;;;;;5032493;28;20064;-51
2022/03/21 11:11:05;;;;;;;9.63;6.15;;;;;;;;;;5031415;28;20040;-57
2022/03/21 11:13:32;;;;;;;13.57;6.18;;;;;;;;;;5031606;28;20021;-57
2022/03/21 11:15:58;;;;;;;9.02;5.13;;;;;;;;;;5034777;28;20476;-50
2022/03/21 11:18:27;;;;;;;18.13;10.50;;;;;;;;;;5041638;28;20037;-58
2022/03/21 11:20:52;;;;;;;8.95;6.35;;;;;;;;;;5040628;28;20025;-58
2022/03/21 11:23:21;;;;;;;12.77;6.68;;;;;;;;;;5037058;28;20640;-50
2022/03/21 11:25:53;;;;;;;17.23;9.70;;;;;;;;;;5052328;28;20029;-52
2022/03/21 11:28:58;;;;;;;13.68;6.90;;;;;;;;;;5051571;28;20087;-50
2022/03/21 11:31:42;;;;;;;14.65;9.32;;;;;;;;;;5051913;28;20029;-59
2022/03/21 11:34:33;;;;;;;10.30;6.15;;;;;;;;;;5051879;28;20057;-55
2022/03/21 11:36:58;;;;;;;12.82;7.85;;;;;;;;;;5052212;28;20035;-55
2022/03/21 11:39:26;;;;;;;11.57;7.72;;;;;;;;;;5051847;28;20024;-60
2022/03/21 11:42:00;;;;;;;40.00;9.40;;;;;;;;;;5051369;28;20095;-53
2022/03/21 11:44:26;;;;;;;13.85;8.20;;;;;;;;;;5051646;28;20400;-51
2022/03/21 11:46:52;;;;;;;12.63;5.13;;;;;;;;;;5051496;28;20071;-53
2022/03/21 11:49:17;;;;;;;13.48;8.48;;;;;;;;;;5051531;28;20078;-51
2022/03/21 11:52:04;;;;;;;13.98;7.78;;;;;;;;;;5051494;28;20029;-50
2022/03/21 11:54:32;;;;;;;13.15;6.18;;;;;;;;;;5051159;28;20045;-51
2022/03/21 11:57:33;;;;;;;9.90;5.47;;;;;;;;;;5050706;28;20025;-49
2022/03/21 11:59:59;;;;;;;15.68;7.57;;;;;;;;;;5032953;28;20056;-53
2022/03/21 12:02:25;;;;;;;11.82;5.35;;;;;;;;;;5051469;28;20021;-53
2022/03/21 12:04:58;;;;;;;16.48;7.15;;;;;;;;;;5051101;28;20400;-52
2022/03/21 12:07:24;;;;;;;11.57;6.10;;;;;;;;;;5051494;28;20423;-52
2022/03/21 12:09:54;;;;;;;11.98;8.50;;;;;;;;;;5051196;28;20078;-55
2022/03/21 12:12:22;;;;;;;16.00;9.70;;;;;;;;;;5051227;28;20087;-52
2022/03/21 12:14:54;;;;;;;14.88;9.13;;;;;;;;;;5044667;28;20026;-60
2022/03/21 12:17:23;;;;;;;12.57;8.25;;;;;;;;;;5038090;28;20060;-51
2022/03/21 12:19:48;;;;;;;17.65;9.73;;;;;;;;;;5042609;28;20033;-54
2022/03/21 12:22:29;;;;;;;13.38;7.47;;;;;;;;;;5050709;28;20427;-54
2022/03/21 12:25:13;;;;;;;19.70;8.85;;;;;;;;;;5050734;28;20037;-51
2022/03/21 12:27:43;;;;;;;11.20;7.13;;;;;;;;;;5050948;28;20429;-50
2022/03/21 12:30:20;;;;;;;19.13;11.57;;;;;;;;;;5051163;28;20036;-50
2022/03/21 12:33:06;;;;;;;15.07;8.63;;;;;;;;;;5050776;28;20028;-52
2022/03/21 12:35:31;;;;;;;9.65;6.35;;;;;;;;;;5051103;28;20098;-49
2022/03/21 12:38:12;;;;;;;34.40;9.98;;;;;;;;;;5051062;28;20487;-53
2022/03/21 12:40:46;;;;;;;15.63;8.05;;;;;;;;;;5050437;28;20060;-55
2022/03/21 12:43:12;;;;;;;9.77;6.22;;;;;;;;;;5051086;28;20381;-55
2022/03/21 12:45:38;;;;;;;9.77;4.75;;;;;;;;;;5050632;28;20040;-51
2022/03/21 12:48:08;;;;;;;15.40;8.70;;;;;;;;;;5050500;28;20035;-52
2022/03/21 12:50:35;;;;;;;9.38;5.65;;;;;;;;;;5049271;28;20508;-55
2022/03/21 12:53:07;;;;;;;6.35;4.93;;;;;;;;;;5050763;28;20104;-54
2022/03/21 12:55:34;;;;;;;10.75;6.57;;;;;;;;;;5050813;28;20041;-52
2022/03/21 12:57:59;;;;;;;20.45;10.07;;;;;;;;;;5050833;28;20036;-49
2022/03/21 13:00:27;;;;;;;10.57;7.22;;;;;;;;;;5050566;28;20094;-50
2022/03/21 13:02:56;;;;;;;17.58;9.75;;;;;;;;;;5050656;28;20079;-51
2022/03/21 13:10:54;;;;;;;12.68;8.00;;;;;;;;;;5050788;28;20090;-48
2022/03/21 13:13:22;;;;;;;15.15;8.95;;;;;;;;;;5050554;28;20096;-49
2022/03/21 13:16:02;;;;;;;40.75;11.20;;;;;;;;;;5050582;28;20033;-49
2022/03/21 13:18:36;;;;;;;16.33;7.57;;;;;;;;;;5050363;28;20028;-49
2022/03/21 13:21:06;;;;;;;18.98;9.70;;;;;;;;;;5050419;28;20465;-54
2022/03/21 13:23:32;;;;;;;16.70;9.50;;;;;;;;;;5050266;28;20025;-50
2022/03/21 13:26:30;;;;;;;13.20;8.75;;;;;;;;;;5050304;28;20057;-47
2022/03/21 13:29:11;;;;;;;15.57;9.40;;;;;;;;;;5037871;28;20066;-50
2022/03/21 13:31:37;;;;;;;15.00;8.88;;;;;;;;;;5050598;28;20028;-51
2022/03/21 13:34:09;;;;;;;21.50;8.77;;;;;;;;;;5050526;28;20032;-51
2022/03/21 13:36:44;;;;;;;21.02;12.10;;;;;;;;;;5051814;28;20120;-51
2022/03/21 13:39:19;;;;;;;8.10;5.82;;;;;;;;;;5054292;28;20068;-49
2022/03/21 13:42:04;;;;;;;9.35;4.50;;;;;;;;;;5054034;28;20487;-48
2022/03/21 13:44:50;;;;;;;16.10;6.97;;;;;;;;;;5053913;28;20052;-50
2022/03/21 13:47:16;;;;;;;16.67;9.05;;;;;;;;;;5053111;28;20029;-59
2022/03/21 13:49:55;;;;;;;9.98;6.18;;;;;;;;;;5052609;28;20058;-55
2022/03/21 13:52:44;;;;;;;15.75;9.10;;;;;;;;;;5054980;28;20021;-50
2022/03/21 13:55:36;;;;;;;14.70;9.77;;;;;;;;;;5055032;28;20060;-52
2022/03/21 13:58:04;;;;;;;9.85;6.93;;;;;;;;;;5055414;28;20032;-62
2022/03/21 14:00:37;;;;;;;16.85;8.18;;;;;;;;;;5055167;28;20083;-62
2022/03/21 14:03:04;;;;;;;10.98;5.93;;;;;;;;;;5055374;28;20108;-62
2022/03/21 14:05:38;;;;;;;16.02;7.82;;;;;;;;;;5054979;28;20025;-52
2022/03/21 14:08:18;;;;;;;11.73;6.78;;;;;;;;;;5055150;28;20029;-54
2022/03/21 14:10:46;;;;;;;7.72;5.40;;;;;;;;;;5055288;28;20055;-49
2022/03/21 14:13:19;;;;;;;9.55;6.03;;;;;;;;;;5054726;28;20491;-49
2022/03/21 14:15:46;;;;;;;7.95;5.43;;;;;;;;;;5054872;28;20061;-63
2022/03/21 14:18:12;;;;;;;7.40;4.63;;;;;;;;;;5053445;28;20059;-60
2022/03/21 14:20:39;;;;;;;12.02;6.63;;;;;;;;;;5053476;28;20033;-61
2022/03/21 14:23:05;;;;;;;14.70;7.80;;;;;;;;;;5053062;28;20029;-62
2022/03/21 14:28:14;;;;;;;16.08;6.82;;;;;;;;;;5053394;28;20091;-52
2022/03/21 14:30:40;;;;;;;15.57;7.15;;;;;;;;;;5053397;28;20032;-63
2022/03/21 14:33:06;;;;;;;15.18;8.10;;;;;;;;;;5053409;28;20025;-62
2022/03/21 14:35:31;;;;;;;37.30;7.20;;;;;;;;;;5052956;28;20094;-60
2022/03/21 14:37:57;;;;;;;14.15;7.75;;;;;;;;;;5053127;28;20357;-64
2022/03/21 14:40:22;;;;;;;15.88;8.07;;;;;;;;;;5053165;28;20445;-64
2022/03/21 14:42:48;;;;;;;112.13;11.10;;;;;;;;;;5052516;28;20557;-53
2022/03/21 14:45:14;;;;;;;15.43;7.45;;;;;;;;;;5051766;28;20412;-63
2022/03/21 14:47:40;;;;;;;16.10;7.75;;;;;;;;;;5052077;28;20384;-62
2022/03/21 14:50:08;;;;;;;14.00;8.45;;;;;;;;;;5052704;28;20055;-62
2022/03/21 14:52:33;;;;;;;17.55;8.48;;;;;;;;;;5052792;28;20601;-64
2022/03/21 14:54:59;;;;;;;20.38;9.90;;;;;;;;;;5051848;28;20032;-62
2022/03/21 14:57:25;;;;;;;18.08;9.48;;;;;;;;;;5051938;28;20437;-58
2022/03/21 14:59:51;;;;;;;19.08;10.65;;;;;;;;;;5051806;28;20076;-54
2022/03/21 15:02:17;;;;;;;15.35;9.23;;;;;;;;;;5052009;28;20495;-56
2022/03/21 15:04:43;;;;;;;17.67;9.18;;;;;;;;;;5052231;28;20035;-63
2022/03/21 15:07:09;;;;;;;32.97;8.43;;;;;;;;;;5052150;28;20024;-53
2022/03/21 15:10:20;;;;;;;9.05;5.40;;;;;;;;;;5052511;28;20033;-62